Terminal Aerodrome Forecast
Issued by NWS Brownsville, TX

Home | Current Version | Previous Version | Text Only | Print | Product List | Glossary On
Versions: 1 2 3 4 5 6 7 8 9 10 11 12 13 14 15 16
000
FTUS44 KBRO 210900 AAA
TAFMFE
TAF AMD
KMFE 210957Z 2110/2206 16009KT P6SM SKC
     FM211300 15013KT P6SM FEW030
     FM211500 15019G25KT P6SM SCT050=

USA.gov is the U.S. government's official web portal to all federal, state and local government web resources and services.